Time;durP1;ratioP1;P1;durP2;ratioP2;P2;SDS_P1;SDS_P2;PMS_P1;PMS_P2;Temp;Humidity;BMP_temperature;BMP_pressure;BME280_temperature;BME280_humidity;BME280_pressure;Samples;Min_cycle;Max_cycle;Signal;HPM_P1;HPM_P2
2023/01/08 00:01:59;;;;;;;4.20;3.80;;;10.10;99.90;;;;;;4998183;28;90025;-35
2023/01/08 00:04:25;;;;;;;5.80;4.75;;;10.10;99.90;;;;;;4998159;28;89464;-34
2023/01/08 00:06:50;;;;;;;4.90;4.35;;;10.10;99.90;;;;;;4998472;28;89493;-32
2023/01/08 00:09:16;;;;;;;10.13;4.57;;;10.10;99.90;;;;;;4997464;28;90432;-32
2023/01/08 00:11:43;;;;;;;4.35;3.95;;;10.10;99.90;;;;;;4997740;28;89059;-33
2023/01/08 00:14:09;;;;;;;6.28;4.05;;;10.20;99.90;;;;;;4998093;28;89190;-33
2023/01/08 00:16:35;;;;;;;3.40;3.15;;;10.10;99.90;;;;;;4999015;28;89365;-34
2023/01/08 00:19:01;;;;;;;5.10;4.00;;;10.20;99.90;;;;;;4997758;28;91017;-33
2023/01/08 00:21:27;;;;;;;4.75;4.35;;;10.20;99.90;;;;;;4998186;28;90181;-33
2023/01/08 00:23:53;;;;;;;4.95;4.38;;;10.20;99.90;;;;;;4997968;28;89442;-34
2023/01/08 00:26:18;;;;;;;6.18;4.22;;;10.30;99.90;;;;;;4998152;28;88581;-32
2023/01/08 00:28:44;;;;;;;5.40;4.80;;;10.30;99.90;;;;;;5000802;28;90336;-34
2023/01/08 00:31:11;;;;;;;5.88;4.45;;;10.20;99.90;;;;;;5000983;28;89902;-33
2023/01/08 00:33:38;;;;;;;4.47;4.15;;;10.20;99.90;;;;;;5000883;28;90106;-34
2023/01/08 00:36:09;;;;;;;13.43;4.53;;;10.30;99.90;;;;;;5001813;28;88270;-33
2023/01/08 00:38:35;;;;;;;4.55;4.15;;;10.30;99.90;;;;;;5001462;28;90112;-33
2023/01/08 00:41:01;;;;;;;3.95;3.65;;;10.20;99.90;;;;;;5001264;28;90815;-33
2023/01/08 00:43:27;;;;;;;5.25;4.80;;;10.30;99.90;;;;;;5001029;28;88973;-32
2023/01/08 00:45:52;;;;;;;4.55;3.30;;;10.20;99.90;;;;;;5000551;28;90048;-32
2023/01/08 00:48:21;;;;;;;4.38;3.97;;;10.20;99.90;;;;;;5000630;28;89997;-32
2023/01/08 00:50:47;;;;;;;5.45;4.18;;;10.30;99.90;;;;;;5000705;28;90427;-33
2023/01/08 00:53:13;;;;;;;5.68;4.07;;;10.30;99.90;;;;;;5000957;28;90106;-35
2023/01/08 00:55:38;;;;;;;5.75;4.50;;;10.20;99.90;;;;;;5001164;28;90770;-34
2023/01/08 00:58:04;;;;;;;5.05;4.65;;;10.20;99.90;;;;;;5000377;28;90202;-32
2023/01/08 01:00:30;;;;;;;5.53;3.35;;;10.20;99.90;;;;;;5000433;28;89551;-33
2023/01/08 01:02:55;;;;;;;6.43;4.30;;;10.20;99.90;;;;;;5000639;28;88657;-35
2023/01/08 01:05:21;;;;;;;5.90;4.65;;;10.20;99.90;;;;;;5001345;28;88965;-33
2023/01/08 01:07:46;;;;;;;8.30;5.13;;;10.20;99.90;;;;;;5000665;28;90026;-33
2023/01/08 01:10:15;;;;;;;4.70;4.05;;;10.20;99.90;;;;;;5000622;28;91117;-33
2023/01/08 01:12:41;;;;;;;5.72;4.75;;;10.10;99.90;;;;;;4999191;28;90293;-32
2023/01/08 01:15:09;;;;;;;4.50;4.10;;;10.20;99.90;;;;;;5000471;28;88414;-32
2023/01/08 01:17:37;;;;;;;5.47;4.47;;;10.10;99.90;;;;;;5000612;28;89838;-34
2023/01/08 01:20:03;;;;;;;4.47;4.07;;;10.10;99.90;;;;;;5000702;28;90045;-34
2023/01/08 01:22:29;;;;;;;4.75;4.22;;;10.10;99.90;;;;;;5000976;28;89455;-32
2023/01/08 01:24:54;;;;;;;6.60;4.32;;;10.10;99.90;;;;;;5000640;28;87702;-33
2023/01/08 01:27:20;;;;;;;5.38;4.88;;;10.00;99.90;;;;;;5001282;28;90286;-33
2023/01/08 01:29:46;;;;;;;5.28;4.78;;;10.10;99.90;;;;;;4999541;28;89753;-33
2023/01/08 01:32:11;;;;;;;5.68;5.18;;;10.00;99.90;;;;;;5001101;28;89768;-33
2023/01/08 01:34:37;;;;;;;5.22;4.72;;;10.00;99.90;;;;;;4999909;28;88928;-33
2023/01/08 01:37:03;;;;;;;5.55;4.85;;;9.90;99.90;;;;;;5000180;28;90355;-32
2023/01/08 01:39:29;;;;;;;4.53;3.25;;;9.70;99.90;;;;;;4999843;28;90121;-34
2023/01/08 01:41:55;;;;;;;5.55;2.55;;;9.70;99.90;;;;;;4999634;28;89750;-32
2023/01/08 01:44:39;;;;;;;4.72;2.65;;;9.60;99.90;;;;;;5001166;28;88710;-32
2023/01/08 01:47:29;;;;;;;8.82;2.47;;;9.50;99.90;;;;;;5000025;28;90251;-34
2023/01/08 01:50:16;;;;;;;4.88;2.20;;;9.50;99.90;;;;;;4996756;28;96460;-33
2023/01/08 01:52:56;;;;;;;5.25;1.65;;;9.30;99.90;;;;;;4996892;28;95937;-32
2023/01/08 01:55:21;;;;;;;4.07;2.08;;;9.20;99.90;;;;;;4998228;28;94567;-34
2023/01/08 01:57:52;;;;;;;7.00;2.15;;;9.10;99.90;;;;;;4996562;28;93384;-33
2023/01/08 02:00:19;;;;;;;6.45;2.13;;;9.00;99.90;;;;;;4997215;28;95101;-32
2023/01/08 02:02:44;;;;;;;2.65;1.75;;;9.00;99.90;;;;;;4996899;28;95442;-32
2023/01/08 02:05:10;;;;;;;5.38;2.08;;;9.00;99.90;;;;;;4998094;28;94616;-32
2023/01/08 02:07:36;;;;;;;7.97;2.10;;;8.90;99.90;;;;;;4996773;28;94605;-34
2023/01/08 02:10:04;;;;;;;9.25;2.25;;;8.80;99.90;;;;;;4997581;28;94477;-34
2023/01/08 02:12:43;;;;;;;5.88;2.45;;;8.80;99.90;;;;;;4996636;28;94147;-33
2023/01/08 02:15:26;;;;;;;5.20;2.13;;;8.80;99.90;;;;;;4998000;28;94235;-33
2023/01/08 02:18:01;;;;;;;5.22;2.58;;;8.80;99.90;;;;;;4997524;28;93664;-36
2023/01/08 02:20:40;;;;;;;6.20;2.45;;;8.80;99.90;;;;;;4997734;28;94325;-32
2023/01/08 02:23:27;;;;;;;6.68;2.67;;;8.70;99.90;;;;;;4985337;28;94162;-33
2023/01/08 02:26:20;;;;;;;7.55;2.40;;;8.70;99.90;;;;;;4996383;28;94087;-35
2023/01/08 02:28:52;;;;;;;7.28;2.65;;;8.70;99.90;;;;;;4997286;28;92169;-35
2023/01/08 02:31:20;;;;;;;6.40;2.13;;;8.60;99.90;;;;;;4996697;28;94659;-33
2023/01/08 02:33:45;;;;;;;9.65;2.63;;;8.60;99.90;;;;;;4996419;28;94056;-34
2023/01/08 02:36:31;;;;;;;8.02;2.50;;;8.60;99.90;;;;;;4997350;28;94827;-33
2023/01/08 02:39:03;;;;;;;7.60;2.25;;;8.60;99.90;;;;;;4995529;28;94523;-32
2023/01/08 02:42:03;;;;;;;8.55;2.38;;;8.50;99.90;;;;;;4996806;28;95557;-33
2023/01/08 02:44:40;;;;;;;4.57;2.38;;;8.50;99.90;;;;;;4984957;28;94359;-32
2023/01/08 02:47:13;;;;;;;7.53;2.63;;;8.50;99.90;;;;;;4983910;28;94201;-33
2023/01/08 02:49:45;;;;;;;5.45;3.05;;;8.50;99.90;;;;;;4977887;28;92502;-34
2023/01/08 02:52:12;;;;;;;3.50;1.98;;;8.50;99.90;;;;;;4995719;28;95555;-32
2023/01/08 02:54:40;;;;;;;8.00;2.72;;;8.50;99.90;;;;;;4996745;28;96034;-33
2023/01/08 02:57:13;;;;;;;6.57;3.10;;;8.50;99.90;;;;;;4997359;28;95087;-31
2023/01/08 02:59:43;;;;;;;7.07;2.45;;;8.40;99.90;;;;;;4995652;28;93570;-32
2023/01/08 03:02:10;;;;;;;4.90;2.10;;;8.40;99.90;;;;;;4996433;28;94062;-32
2023/01/08 03:04:41;;;;;;;5.38;2.88;;;8.40;99.90;;;;;;4996358;28;95119;-34
2023/01/08 03:07:07;;;;;;;5.68;2.25;;;8.30;99.90;;;;;;4996123;28;93542;-34
2023/01/08 03:09:33;;;;;;;3.88;2.30;;;8.30;99.90;;;;;;4996938;28;93399;-32
2023/01/08 03:12:05;;;;;;;4.32;2.22;;;8.40;99.90;;;;;;4995888;28;94741;-34
2023/01/08 03:14:42;;;;;;;3.72;2.00;;;8.40;99.90;;;;;;4996324;28;94737;-32
2023/01/08 03:17:17;;;;;;;4.25;2.33;;;8.30;99.90;;;;;;4995411;28;93991;-33
2023/01/08 03:19:49;;;;;;;2.67;1.67;;;8.30;99.90;;;;;;4996441;28;94110;-33
2023/01/08 03:22:16;;;;;;;3.33;2.65;;;8.30;99.90;;;;;;4995846;28;94878;-32
2023/01/08 03:24:44;;;;;;;4.43;2.72;;;8.30;99.90;;;;;;4996332;28;94406;-34
2023/01/08 03:27:15;;;;;;;3.75;3.03;;;8.30;99.90;;;;;;4995867;28;92158;-32
2023/01/08 03:29:40;;;;;;;7.90;4.03;;;8.30;99.90;;;;;;4996393;28;94670;-31
2023/01/08 03:32:12;;;;;;;5.32;2.85;;;8.40;99.90;;;;;;4995805;28;94548;-32
2023/01/08 03:34:40;;;;;;;3.70;3.40;;;8.40;99.90;;;;;;4996332;28;95800;-32
2023/01/08 03:37:08;;;;;;;5.68;3.95;;;8.40;99.90;;;;;;4996375;28;94662;-33
2023/01/08 03:39:42;;;;;;;5.70;4.63;;;8.40;99.90;;;;;;4995067;28;92638;-34
2023/01/08 03:42:10;;;;;;;10.68;5.85;;;8.50;99.90;;;;;;4995248;28;94462;-31
2023/01/08 03:44:36;;;;;;;7.65;5.20;;;8.50;99.90;;;;;;4995976;28;95432;-34
2023/01/08 03:47:03;;;;;;;6.90;4.95;;;8.60;99.90;;;;;;4995421;28;92198;-32
2023/01/08 03:49:29;;;;;;;8.45;6.05;;;8.70;99.90;;;;;;4996278;28;93072;-33
2023/01/08 03:51:55;;;;;;;6.13;5.05;;;8.80;99.90;;;;;;4995503;28;96663;-32
2023/01/08 03:54:28;;;;;;;5.57;4.90;;;8.90;99.90;;;;;;4995800;28;94378;-32
2023/01/08 03:56:54;;;;;;;6.53;4.82;;;8.90;99.90;;;;;;4984783;28;94190;-33
2023/01/08 03:59:19;;;;;;;6.07;5.47;;;9.10;99.90;;;;;;4995658;28;92353;-32
2023/01/08 04:01:45;;;;;;;7.22;5.43;;;9.10;99.90;;;;;;4996813;28;94415;-32
2023/01/08 04:04:11;;;;;;;7.28;5.30;;;9.10;99.90;;;;;;4999169;28;94130;-32
2023/01/08 04:06:37;;;;;;;5.85;4.82;;;9.10;99.90;;;;;;4998578;28;93714;-32
2023/01/08 04:09:02;;;;;;;8.00;5.68;;;9.10;99.90;;;;;;4998559;28;94077;-31
2023/01/08 04:11:28;;;;;;;6.13;5.53;;;9.10;99.90;;;;;;4999862;28;94745;-35
2023/01/08 04:13:54;;;;;;;5.60;5.07;;;9.10;99.90;;;;;;4998226;28;94579;-35
2023/01/08 04:16:20;;;;;;;7.80;5.22;;;9.10;99.90;;;;;;4999227;28;94135;-32
2023/01/08 04:18:45;;;;;;;6.60;5.53;;;9.00;99.90;;;;;;4998373;28;92226;-34
2023/01/08 04:21:11;;;;;;;5.00;4.18;;;9.00;99.90;;;;;;4999042;28;95222;-33
2023/01/08 04:23:37;;;;;;;7.05;5.55;;;9.00;99.90;;;;;;4999377;28;94492;-32
2023/01/08 04:26:06;;;;;;;12.35;6.82;;;9.00;99.90;;;;;;4998552;28;93332;-34
2023/01/08 04:28:33;;;;;;;7.10;5.78;;;9.00;99.90;;;;;;4998949;28;93184;-32
2023/01/08 04:30:58;;;;;;;5.28;4.80;;;9.00;99.90;;;;;;4997717;28;96249;-33
2023/01/08 04:33:24;;;;;;;5.50;4.95;;;9.00;99.90;;;;;;4999237;28;95107;-32
2023/01/08 04:35:50;;;;;;;8.18;4.95;;;9.00;99.90;;;;;;4998340;28;94586;-31
2023/01/08 04:38:16;;;;;;;4.70;4.30;;;9.00;99.90;;;;;;4998814;28;94593;-33
2023/01/08 04:40:42;;;;;;;6.30;4.63;;;9.00;99.90;;;;;;4997633;28;95589;-33
2023/01/08 04:43:08;;;;;;;6.82;3.60;;;8.90;99.90;;;;;;4998179;28;94450;-34
2023/01/08 04:45:34;;;;;;;5.68;3.75;;;8.90;99.90;;;;;;4998810;28;93277;-32
2023/01/08 04:48:00;;;;;;;4.55;2.97;;;8.80;99.90;;;;;;4998804;28;94813;-33
2023/01/08 04:50:26;;;;;;;5.07;3.15;;;8.80;99.90;;;;;;4985584;28;93942;-35
2023/01/08 04:52:52;;;;;;;4.63;2.67;;;8.80;99.90;;;;;;4997858;28;94488;-33
2023/01/08 04:55:18;;;;;;;5.50;3.05;;;8.70;99.90;;;;;;4998231;28;95602;-35
2023/01/08 04:57:43;;;;;;;3.25;2.58;;;8.70;99.90;;;;;;4998298;28;92154;-34
2023/01/08 05:00:09;;;;;;;3.45;2.55;;;8.60;99.90;;;;;;4998851;28;93672;-32
2023/01/08 05:02:35;;;;;;;8.60;2.92;;;8.60;99.90;;;;;;4998243;28;95128;-37
2023/01/08 05:05:01;;;;;;;4.22;2.80;;;8.60;99.90;;;;;;4999465;28;94998;-33
2023/01/08 05:07:26;;;;;;;8.43;3.20;;;8.60;99.90;;;;;;4997359;28;92905;-32
2023/01/08 05:09:52;;;;;;;4.25;2.78;;;8.60;99.90;;;;;;4998164;28;94955;-32
2023/01/08 05:12:18;;;;;;;4.53;2.72;;;8.60;99.90;;;;;;4998002;28;94602;-34
2023/01/08 05:14:44;;;;;;;3.58;3.25;;;8.60;99.90;;;;;;4997965;28;92394;-33
2023/01/08 05:17:09;;;;;;;6.50;4.15;;;8.60;99.90;;;;;;4998134;28;93294;-32
2023/01/08 05:19:35;;;;;;;4.03;3.00;;;8.50;99.90;;;;;;4997346;28;95531;-32
2023/01/08 05:22:00;;;;;;;4.00;3.65;;;8.50;99.90;;;;;;4998525;28;95979;-32
2023/01/08 05:24:26;;;;;;;4.03;3.47;;;8.50;99.90;;;;;;4997341;28;93495;-31
2023/01/08 05:26:52;;;;;;;7.63;4.38;;;8.50;99.90;;;;;;4998665;28;92587;-33
2023/01/08 05:29:17;;;;;;;6.18;3.55;;;8.50;99.90;;;;;;4996978;28;95164;-33
2023/01/08 05:31:43;;;;;;;4.22;3.83;;;8.50;99.90;;;;;;4998309;28;94632;-33
2023/01/08 05:34:09;;;;;;;7.28;4.10;;;8.50;99.90;;;;;;4997702;28;94132;-33
2023/01/08 05:36:34;;;;;;;7.68;4.03;;;8.50;99.90;;;;;;4998324;28;93611;-35
2023/01/08 05:39:00;;;;;;;3.78;3.40;;;8.40;99.90;;;;;;4997954;28;94599;-32
2023/01/08 05:41:25;;;;;;;4.50;3.92;;;8.40;99.90;;;;;;4997758;28;94614;-33
2023/01/08 05:43:51;;;;;;;8.38;4.35;;;8.40;99.90;;;;;;4997134;28;94119;-32
2023/01/08 05:46:17;;;;;;;8.68;4.35;;;8.40;99.90;;;;;;4997444;28;93485;-31
2023/01/08 05:48:42;;;;;;;5.25;3.72;;;8.40;99.90;;;;;;4997818;28;95550;-33
2023/01/08 05:51:08;;;;;;;6.60;4.45;;;8.40;99.90;;;;;;4997225;28;94574;-32
2023/01/08 05:53:33;;;;;;;6.35;4.25;;;8.50;99.90;;;;;;4997985;28;93041;-32
2023/01/08 05:56:05;;;;;;;7.28;4.57;;;8.50;99.90;;;;;;4996804;28;94224;-32
2023/01/08 05:58:31;;;;;;;5.68;3.50;;;8.50;99.90;;;;;;4997510;28;95435;-32
2023/01/08 06:01:09;;;;;;;3.85;3.17;;;8.50;99.90;;;;;;4996698;28;94256;-34
2023/01/08 06:03:35;;;;;;;5.10;3.20;;;8.40;99.90;;;;;;4997806;28;92105;-33
2023/01/08 06:06:02;;;;;;;6.45;3.03;;;8.50;99.90;;;;;;4997694;28;94115;-32
2023/01/08 06:08:28;;;;;;;5.65;3.17;;;8.40;99.90;;;;;;4996839;28;96101;-33
2023/01/08 06:10:58;;;;;;;4.65;3.05;;;8.40;99.90;;;;;;4995600;28;95078;-34
2023/01/08 06:13:23;;;;;;;4.78;2.97;;;8.30;99.90;;;;;;4997541;28;93389;-34
2023/01/08 06:15:49;;;;;;;5.95;2.85;;;8.30;99.90;;;;;;4997040;28;93138;-32
2023/01/08 06:18:14;;;;;;;6.68;2.97;;;8.30;99.90;;;;;;4997216;28;96273;-32
2023/01/08 06:20:40;;;;;;;5.18;3.42;;;8.20;99.90;;;;;;4996008;28;95361;-33
2023/01/08 06:23:07;;;;;;;8.55;2.60;;;8.20;99.90;;;;;;4997364;28;93446;-35
2023/01/08 06:25:33;;;;;;;2.58;1.95;;;8.30;99.90;;;;;;4995858;28;91974;-33
2023/01/08 06:27:58;;;;;;;8.85;2.63;;;8.20;99.90;;;;;;4997529;28;95147;-33
2023/01/08 06:30:24;;;;;;;7.50;2.50;;;8.30;99.90;;;;;;4996694;28;96438;-32
2023/01/08 06:32:57;;;;;;;5.55;2.60;;;8.20;99.90;;;;;;4996909;28;94849;-33
2023/01/08 06:35:23;;;;;;;5.90;2.35;;;8.20;99.90;;;;;;4996292;28;93369;-34
2023/01/08 06:37:49;;;;;;;3.13;2.15;;;8.10;99.90;;;;;;4996928;28;94930;-32
2023/01/08 06:40:14;;;;;;;8.77;2.75;;;8.10;99.90;;;;;;4996822;28;94471;-32
2023/01/08 06:42:42;;;;;;;3.47;2.45;;;8.10;99.90;;;;;;4997128;28;92206;-32
2023/01/08 06:45:08;;;;;;;7.40;3.13;;;8.10;99.90;;;;;;4997260;28;94537;-33
2023/01/08 06:47:34;;;;;;;6.03;1.92;;;8.10;99.90;;;;;;4996652;28;96305;-34
2023/01/08 06:49:59;;;;;;;9.07;2.70;;;8.10;99.90;;;;;;4995866;28;94700;-33
2023/01/08 06:52:25;;;;;;;3.53;2.75;;;8.10;99.90;;;;;;4979953;28;93256;-33
2023/01/08 06:54:50;;;;;;;4.18;2.20;;;8.10;99.90;;;;;;4996611;28;92975;-34
2023/01/08 06:57:16;;;;;;;7.00;2.25;;;8.10;99.90;;;;;;4996845;28;94617;-33
2023/01/08 06:59:42;;;;;;;6.03;2.17;;;8.10;99.90;;;;;;4995673;28;95628;-35
2023/01/08 07:02:13;;;;;;;3.00;1.85;;;8.10;99.90;;;;;;4997210;28;94303;-32
2023/01/08 07:04:38;;;;;;;3.25;2.08;;;8.10;99.90;;;;;;4996306;28;93807;-32
2023/01/08 07:07:04;;;;;;;3.58;1.85;;;8.00;99.90;;;;;;4996425;28;94809;-32
2023/01/08 07:09:30;;;;;;;4.28;2.13;;;8.00;99.90;;;;;;4995491;28;94785;-33
2023/01/08 07:11:55;;;;;;;5.28;2.22;;;8.00;99.90;;;;;;4996873;28;92232;-32
2023/01/08 07:14:21;;;;;;;7.57;3.03;;;8.10;99.90;;;;;;4996645;28;93813;-34
2023/01/08 07:16:47;;;;;;;9.68;2.92;;;8.00;99.90;;;;;;4996213;28;94834;-33
2023/01/08 07:19:12;;;;;;;6.18;2.45;;;8.10;99.90;;;;;;4995843;28;93914;-32
2023/01/08 07:21:38;;;;;;;7.28;2.53;;;8.10;99.90;;;;;;4995603;28;93941;-32
2023/01/08 07:24:04;;;;;;;3.40;2.17;;;8.10;99.90;;;;;;4996529;28;93280;-32
2023/01/08 07:26:30;;;;;;;4.28;2.45;;;8.10;99.90;;;;;;4996056;28;96823;-34
2023/01/08 07:28:56;;;;;;;8.57;2.28;;;8.10;99.90;;;;;;4995313;28;94167;-32
2023/01/08 07:31:21;;;;;;;5.55;2.50;;;8.10;99.90;;;;;;4996842;28;92536;-33
2023/01/08 07:33:47;;;;;;;3.97;2.30;;;8.10;99.90;;;;;;4995210;28;92870;-32
2023/01/08 07:36:13;;;;;;;10.60;3.00;;;8.10;99.90;;;;;;4995678;28;94569;-34
2023/01/08 07:38:38;;;;;;;5.80;2.92;;;8.10;99.90;;;;;;4995160;28;94865;-33
2023/01/08 07:41:04;;;;;;;6.95;2.88;;;8.10;99.90;;;;;;4996753;28;92562;-33
2023/01/08 07:43:30;;;;;;;7.82;2.67;;;8.10;99.90;;;;;;4995540;28;92762;-34
2023/01/08 07:45:56;;;;;;;4.18;3.03;;;8.10;99.90;;;;;;4995689;28;95042;-35
2023/01/08 07:48:22;;;;;;;4.53;2.55;;;8.10;99.90;;;;;;4995899;28;95032;-32
2023/01/08 07:50:48;;;;;;;7.40;3.33;;;8.10;99.90;;;;;;4995979;28;92578;-31
2023/01/08 07:53:16;;;;;;;2.53;2.13;;;8.10;99.90;;;;;;4996085;28;94109;-33
2023/01/08 07:55:41;;;;;;;9.95;3.45;;;8.10;99.90;;;;;;4995468;28;94837;-33
2023/01/08 07:58:12;;;;;;;4.75;2.45;;;8.10;99.90;;;;;;4995641;28;94075;-34
2023/01/08 08:00:38;;;;;;;4.40;3.08;;;8.10;99.90;;;;;;4996047;28;93812;-32
2023/01/08 08:03:06;;;;;;;5.40;2.63;;;8.10;99.90;;;;;;4993473;28;93521;-35
2023/01/08 08:05:32;;;;;;;3.45;2.33;;;8.00;99.90;;;;;;4995607;28;94906;-32
2023/01/08 08:07:58;;;;;;;6.47;2.40;;;8.00;99.90;;;;;;4995022;28;94243;-34
2023/01/08 08:10:23;;;;;;;5.10;2.50;;;8.10;99.90;;;;;;4995536;28;95628;-34
2023/01/08 08:12:49;;;;;;;4.30;2.58;;;8.00;99.90;;;;;;4995526;28;93297;-34
2023/01/08 08:15:15;;;;;;;7.32;3.35;;;8.00;99.90;;;;;;4995083;28;94824;-33
2023/01/08 08:17:46;;;;;;;3.33;1.98;;;8.00;99.90;;;;;;4993716;28;92575;-31
2023/01/08 08:20:12;;;;;;;6.50;2.95;;;7.90;99.90;;;;;;4996334;28;94305;-32
2023/01/08 08:22:37;;;;;;;4.07;2.83;;;7.90;99.90;;;;;;4993654;28;92132;-32
2023/01/08 08:25:03;;;;;;;7.75;2.95;;;7.90;99.90;;;;;;4995502;28;95248;-32
2023/01/08 08:27:29;;;;;;;7.53;2.28;;;7.90;99.90;;;;;;4996241;28;94669;-33
2023/01/08 08:29:54;;;;;;;6.88;2.65;;;7.80;99.90;;;;;;4995015;28;92825;-33
2023/01/08 08:32:20;;;;;;;4.68;2.90;;;7.80;99.90;;;;;;4996238;28;94253;-33
2023/01/08 08:34:46;;;;;;;7.10;2.50;;;7.80;99.90;;;;;;4994857;28;96061;-32
2023/01/08 08:37:11;;;;;;;6.15;2.75;;;7.80;99.90;;;;;;4994748;28;94473;-32
2023/01/08 08:39:37;;;;;;;5.82;2.42;;;7.80;99.90;;;;;;4995538;28;92597;-32
2023/01/08 08:42:03;;;;;;;6.50;2.53;;;7.80;99.90;;;;;;4995280;28;94048;-32
2023/01/08 08:44:29;;;;;;;6.97;2.88;;;7.80;99.90;;;;;;4995581;28;94439;-34
2023/01/08 08:46:54;;;;;;;6.68;2.22;;;7.80;99.90;;;;;;4994930;28;94554;-34
2023/01/08 08:49:20;;;;;;;6.43;2.40;;;7.80;99.90;;;;;;4998147;28;94299;-34
2023/01/08 08:51:45;;;;;;;2.42;1.98;;;7.90;99.90;;;;;;4998661;28;93257;-33
2023/01/08 08:54:11;;;;;;;11.18;3.13;;;7.80;99.90;;;;;;4998687;28;94873;-34
2023/01/08 08:56:37;;;;;;;5.55;2.35;;;7.90;99.90;;;;;;4998783;28;94327;-32
2023/01/08 08:59:02;;;;;;;6.20;2.92;;;7.90;99.90;;;;;;4998494;28;95157;-33
2023/01/08 09:01:28;;;;;;;6.35;2.63;;;7.90;99.90;;;;;;4998971;28;94518;-32
2023/01/08 09:03:54;;;;;;;6.30;2.55;;;8.00;99.90;;;;;;4997612;28;96314;-33
2023/01/08 09:06:20;;;;;;;3.45;2.40;;;8.00;99.90;;;;;;4997346;28;96713;-33
2023/01/08 09:08:45;;;;;;;3.33;2.42;;;8.00;99.90;;;;;;4998690;28;93444;-33
2023/01/08 09:11:11;;;;;;;2.83;2.17;;;8.00;99.90;;;;;;4998041;28;92656;-32
2023/01/08 09:13:37;;;;;;;5.40;2.58;;;8.00;99.90;;;;;;4997706;28;94375;-32
2023/01/08 09:16:03;;;;;;;5.28;2.33;;;8.10;99.90;;;;;;4997205;28;93536;-32
2023/01/08 09:18:28;;;;;;;3.63;2.45;;;8.20;99.90;;;;;;4998461;28;94537;-35
2023/01/08 09:20:54;;;;;;;4.75;2.30;;;8.20;99.90;;;;;;4997620;28;94419;-35
2023/01/08 09:23:20;;;;;;;5.30;2.15;;;8.30;99.90;;;;;;4997807;28;95543;-34
2023/01/08 09:25:45;;;;;;;4.32;2.45;;;8.50;99.90;;;;;;4997211;28;94972;-32
2023/01/08 09:28:11;;;;;;;5.72;2.83;;;8.60;99.90;;;;;;4998270;28;94525;-32
2023/01/08 09:30:40;;;;;;;4.55;2.33;;;8.80;99.90;;;;;;4997569;28;93160;-33
2023/01/08 09:33:05;;;;;;;4.90;2.45;;;9.00;99.90;;;;;;4998513;28;93663;-34
2023/01/08 09:35:32;;;;;;;3.38;1.90;;;9.10;99.90;;;;;;4979689;28;95064;-33
2023/01/08 09:38:23;;;;;;;5.43;2.58;;;9.20;99.90;;;;;;4998853;28;94098;-36
2023/01/08 09:40:49;;;;;;;8.35;2.40;;;9.20;99.90;;;;;;4968295;28;93207;-33
2023/01/08 09:43:21;;;;;;;4.78;2.30;;;9.30;99.90;;;;;;4970007;28;93711;-35
2023/01/08 09:45:51;;;;;;;5.40;2.35;;;9.20;99.90;;;;;;4972470;28;94899;-32
2023/01/08 09:48:19;;;;;;;3.72;2.35;;;9.10;99.90;;;;;;4969374;28;93757;-32
2023/01/08 09:50:46;;;;;;;3.90;2.53;;;9.10;99.90;;;;;;4974830;28;93557;-33
2023/01/08 09:53:15;;;;;;;7.00;2.78;;;9.10;99.90;;;;;;4968388;28;95152;-32
2023/01/08 09:55:41;;;;;;;;;;;9.00;99.90;;;;;;4970027;28;93943;-32
2023/01/08 09:58:20;;;;;;;4.78;2.60;;;8.90;99.90;;;;;;4979109;28;92749;-35
2023/01/08 10:00:45;;;;;;;6.70;3.05;;;8.90;99.90;;;;;;4976247;28;92943;-32
2023/01/08 10:03:11;;;;;;;9.43;2.58;;;8.90;99.90;;;;;;4977710;28;94941;-32
2023/01/08 10:05:37;;;;;;;5.97;2.45;;;9.00;99.90;;;;;;4976489;28;94675;-35
2023/01/08 10:08:03;;;;;;;6.47;3.08;;;8.90;99.90;;;;;;4959135;28;92957;-34
2023/01/08 10:10:30;;;;;;;8.30;3.08;;;9.00;99.90;;;;;;4976576;28;93477;-32
2023/01/08 10:12:56;;;;;;;12.10;3.00;;;9.00;99.90;;;;;;4963378;28;95616;-32
2023/01/08 10:15:25;;;;;;;6.97;3.17;;;9.00;99.90;;;;;;4974669;28;95279;-32
2023/01/08 10:18:12;;;;;;;9.00;2.70;;;8.90;99.90;;;;;;4977011;28;92161;-34
2023/01/08 10:20:38;;;;;;;7.20;3.03;;;9.00;99.90;;;;;;4962688;28;93821;-33
2023/01/08 10:23:19;;;;;;;4.57;2.03;;;9.00;99.90;;;;;;4977343;28;94204;-32
2023/01/08 10:26:01;;;;;;;5.97;2.47;;;9.00;99.90;;;;;;4975914;28;95604;-32
2023/01/08 10:28:35;;;;;;;3.88;2.72;;;9.00;99.90;;;;;;4977682;28;94107;-33
2023/01/08 10:31:06;;;;;;;5.97;2.95;;;9.10;99.90;;;;;;4989784;28;92535;-32
2023/01/08 10:33:43;;;;;;;9.75;3.03;;;9.10;99.90;;;;;;4977700;28;96237;-32
2023/01/08 10:36:13;;;;;;;9.45;2.85;;;9.10;99.90;;;;;;4976119;28;94531;-31
2023/01/08 10:38:55;;;;;;;6.45;3.08;;;9.20;99.90;;;;;;4974276;28;94254;-32
2023/01/08 10:41:21;;;;;;;9.00;3.05;;;9.20;99.90;;;;;;4977309;28;93431;-32
2023/01/08 10:43:57;;;;;;;6.45;3.13;;;9.20;99.90;;;;;;4975436;28;94530;-35
2023/01/08 10:46:31;;;;;;;12.77;2.83;;;9.20;99.90;;;;;;4976343;28;94566;-33
2023/01/08 10:49:00;;;;;;;7.63;3.58;;;9.30;99.90;;;;;;4964553;28;93103;-32
2023/01/08 10:51:29;;;;;;;9.77;3.25;;;9.30;99.90;;;;;;4975114;28;92708;-35
2023/01/08 10:53:58;;;;;;;7.03;3.45;;;9.30;99.90;;;;;;4966177;28;94871;-33
2023/01/08 10:56:26;;;;;;;7.43;2.95;;;9.40;99.90;;;;;;4957294;28;94460;-34
2023/01/08 10:58:52;;;;;;;7.75;3.28;;;9.40;99.90;;;;;;4969399;28;94605;-31
2023/01/08 11:01:21;;;;;;;5.50;2.53;;;9.40;99.90;;;;;;4976525;28;94582;-33
2023/01/08 11:04:05;;;;;;;9.00;2.40;;;9.40;99.90;;;;;;4976112;28;95464;-33
2023/01/08 11:06:36;;;;;;;6.47;2.53;;;9.40;99.90;;;;;;4975638;28;95438;-32
2023/01/08 11:09:24;;;;;;;8.02;3.70;;;9.60;99.90;;;;;;4975756;28;92235;-32
2023/01/08 11:11:50;;;;;;;7.30;3.10;;;9.50;99.90;;;;;;4975555;28;92026;-34
2023/01/08 11:14:33;;;;;;;8.25;4.03;;;9.60;99.90;;;;;;4975617;28;94539;-32
2023/01/08 11:17:02;;;;;;;8.07;2.75;;;9.60;99.90;;;;;;4972006;28;94443;-34
2023/01/08 11:19:28;;;;;;;6.57;2.55;;;9.60;99.90;;;;;;4971203;28;93108;-32
2023/01/08 11:21:59;;;;;;;6.18;3.35;;;9.60;99.90;;;;;;4968322;28;92861;-34
2023/01/08 11:24:36;;;;;;;9.50;3.03;;;9.70;99.90;;;;;;4976297;28;94644;-33
2023/01/08 11:27:15;;;;;;;12.65;2.80;;;9.60;99.90;;;;;;4975535;28;94864;-33
2023/01/08 11:29:58;;;;;;;6.65;2.92;;;9.70;99.90;;;;;;4976606;28;94448;-32
2023/01/08 11:32:36;;;;;;;14.20;2.35;;;9.70;99.90;;;;;;4975252;28;93006;-34
2023/01/08 11:35:03;;;;;;;7.95;2.60;;;9.70;99.90;;;;;;4976116;28;94461;-32
2023/01/08 11:37:34;;;;;;;9.57;2.77;;;9.80;99.90;;;;;;4971706;28;94962;-33
2023/01/08 11:40:00;;;;;;;9.88;3.47;;;9.70;99.90;;;;;;4968001;28;92403;-32
2023/01/08 11:42:25;;;;;;;5.95;2.80;;;9.70;99.90;;;;;;4975221;28;94277;-32
2023/01/08 11:45:20;;;;;;;13.95;3.35;;;9.80;99.90;;;;;;4968884;28;94877;-32
2023/01/08 11:48:31;;;;;;;10.52;3.10;;;9.90;99.90;;;;;;4962910;28;95114;-33
2023/01/08 11:51:28;;;;;;;8.52;2.95;;;10.00;99.90;;;;;;4943327;28;93378;-33
2023/01/08 11:54:34;;;;;;;9.30;3.17;;;10.00;99.90;;;;;;4965223;28;93090;-34
2023/01/08 11:57:22;;;;;;;10.52;3.75;;;10.00;99.90;;;;;;4979581;28;96300;-32
2023/01/08 11:59:50;;;;;;;9.23;3.03;;;9.90;99.90;;;;;;4975285;28;94540;-33
2023/01/08 12:02:28;;;;;;;14.27;3.60;;;9.90;99.90;;;;;;4975647;28;93400;-33
2023/01/08 12:05:11;;;;;;;13.90;3.60;;;9.90;99.90;;;;;;4956563;28;93212;-34
2023/01/08 12:07:54;;;;;;;7.93;3.45;;;10.00;99.90;;;;;;4958407;28;93128;-31
2023/01/08 12:10:37;;;;;;;8.93;2.67;;;10.00;99.90;;;;;;4975158;28;95045;-34
2023/01/08 12:13:23;;;;;;;7.18;2.85;;;10.10;99.90;;;;;;4959944;28;93400;-32
2023/01/08 12:16:21;;;;;;;5.65;2.90;;;10.20;99.90;;;;;;4959387;28;92775;-35
2023/01/08 12:19:01;;;;;;;10.18;3.50;;;10.20;99.90;;;;;;4961811;28;93764;-34
2023/01/08 12:21:40;;;;;;;8.43;3.65;;;10.10;99.90;;;;;;4978206;28;94760;-34
2023/01/08 12:24:14;;;;;;;10.00;3.45;;;10.00;99.90;;;;;;4963458;28;94012;-33
2023/01/08 12:27:12;;;;;;;13.43;3.90;;;9.90;99.90;;;;;;4974709;28;94467;-33
2023/01/08 12:30:01;;;;;;;8.50;3.47;;;9.80;99.90;;;;;;4969083;28;94284;-32
2023/01/08 12:32:38;;;;;;;7.88;3.35;;;9.90;99.90;;;;;;4979660;28;95143;-32
2023/01/08 12:35:18;;;;;;;10.05;2.97;;;9.80;99.90;;;;;;4969905;28;93323;-32
2023/01/08 12:37:49;;;;;;;5.60;2.75;;;9.70;99.90;;;;;;4963290;28;93680;-32
2023/01/08 12:40:34;;;;;;;7.93;3.10;;;9.70;99.90;;;;;;4969105;28;94268;-32
2023/01/08 12:43:03;;;;;;;10.55;4.03;;;9.60;99.90;;;;;;4968543;28;94758;-33
2023/01/08 12:45:34;;;;;;;6.68;3.10;;;9.50;99.90;;;;;;4971014;28;92254;-32
2023/01/08 12:48:10;;;;;;;8.73;3.85;;;9.60;99.90;;;;;;4974213;28;92532;-34
2023/01/08 12:50:50;;;;;;;8.85;3.22;;;9.60;99.90;;;;;;4961806;28;96036;-36
2023/01/08 12:53:26;;;;;;;9.93;3.15;;;9.60;99.90;;;;;;4962736;28;95152;-35
2023/01/08 12:56:10;;;;;;;8.80;2.88;;;9.60;99.90;;;;;;4958841;28;92591;-33
2023/01/08 12:58:57;;;;;;;9.02;2.70;;;9.60;99.90;;;;;;4958380;28;92810;-36
2023/01/08 13:01:31;;;;;;;7.85;2.92;;;9.60;99.90;;;;;;4959176;28;95156;-32
2023/01/08 13:03:58;;;;;;;6.32;3.10;;;9.50;99.90;;;;;;4959220;28;94485;-34
2023/01/08 13:06:24;;;;;;;8.27;3.50;;;9.60;99.90;;;;;;4959309;28;93926;-32
2023/01/08 13:08:52;;;;;;;7.80;3.25;;;9.60;99.90;;;;;;4959976;28;92983;-34